Time;durP1;ratioP1;P1;durP2;ratioP2;P2;SDS_P1;SDS_P2;PMS_P1;PMS_P2;Temp;Humidity;BMP_temperature;BMP_pressure;BME280_temperature;BME280_humidity;BME280_pressure;Samples;Min_cycle;Max_cycle;Signal;HPM_P1;HPM_P2
2022/04/19 00:00:23;;;;;;;5.03;3.78;;;;;;;2.59;79.06;92904.66;5091762;28;20107;-38
2022/04/19 00:02:48;;;;;;;4.53;3.58;;;;;;;2.58;78.48;92900.47;5091670;28;20114;-38
2022/04/19 00:05:14;;;;;;;3.15;2.17;;;;;;;2.54;79.47;92905.44;5091550;28;20099;-38
2022/04/19 00:07:40;;;;;;;1.80;1.70;;;;;;;2.49;80.44;92904.25;5108348;28;20028;-38
2022/04/19 00:10:07;;;;;;;3.85;2.15;;;;;;;2.41;80.27;92889.72;5112138;28;20078;-38
2022/04/19 00:12:32;;;;;;;2.45;2.10;;;;;;;2.47;80.83;92898.56;5110530;28;20024;-38
2022/04/19 00:14:58;;;;;;;2.50;1.85;;;;;;;2.56;80.93;92900.22;5091044;28;20044;-38
2022/04/19 00:17:24;;;;;;;2.88;2.15;;;;;;;2.58;80.31;92895.75;5091661;28;20107;-38
2022/04/19 00:19:49;;;;;;;2.22;2.05;;;;;;;2.60;80.46;92898.69;5091676;28;20516;-38
2022/04/19 00:22:15;;;;;;;2.28;1.95;;;;;;;2.59;81.35;92889.06;5091298;28;20481;-38
2022/04/19 00:24:40;;;;;;;1.60;1.50;;;;;;;2.46;80.45;92890.91;5091298;28;20034;-38
2022/04/19 00:27:05;;;;;;;1.58;1.42;;;;;;;2.29;81.01;92891.09;5091197;28;20073;-38
2022/04/19 00:29:31;;;;;;;2.17;1.98;;;;;;;2.26;81.78;92887.38;5091475;28;20023;-38
2022/04/19 00:31:56;;;;;;;1.95;1.73;;;;;;;2.46;80.26;92880.03;5091100;28;20024;-38
2022/04/19 00:34:22;;;;;;;2.40;2.15;;;;;;;2.40;80.02;92882.81;5090135;28;20024;-38
2022/04/19 00:36:47;;;;;;;3.80;2.38;;;;;;;2.49;80.90;92873.56;5091302;28;20031;-38
2022/04/19 00:39:13;;;;;;;2.08;1.83;;;;;;;2.55;81.23;92874.25;5091240;28;20409;-38
2022/04/19 00:41:39;;;;;;;2.28;1.90;;;;;;;2.50;80.87;92877.75;5090987;28;20028;-38
2022/04/19 00:44:04;;;;;;;2.90;2.10;;;;;;;2.52;80.49;92876.00;5090113;28;20012;-38
2022/04/19 00:46:30;;;;;;;3.28;2.60;;;;;;;2.59;79.94;92872.72;5090982;28;20012;-38
2022/04/19 00:48:57;;;;;;;3.10;2.80;;;;;;;2.48;79.71;92872.06;5090901;28;20039;-39
2022/04/19 00:51:24;;;;;;;4.63;3.42;;;;;;;2.38;79.75;92868.97;5090823;28;20024;-38
2022/04/19 00:53:49;;;;;;;4.47;2.92;;;;;;;2.35;79.82;92867.25;5091112;28;20095;-38
2022/04/19 00:56:15;;;;;;;5.15;3.40;;;;;;;2.18;80.65;92866.66;5089736;28;20515;-38
2022/04/19 00:58:41;;;;;;;3.05;2.75;;;;;;;2.37;80.70;92864.00;5090706;28;20024;-38
2022/04/19 01:01:06;;;;;;;5.28;3.28;;;;;;;2.48;79.24;92864.66;5090949;28;20031;-38
2022/04/19 01:03:31;;;;;;;6.07;4.13;;;;;;;2.38;81.31;92851.88;5104171;28;20055;-38
2022/04/19 01:05:58;;;;;;;4.05;3.28;;;;;;;2.30;80.76;92857.88;5111215;28;20047;-38
2022/04/19 01:08:24;;;;;;;5.82;3.60;;;;;;;2.29;81.05;92859.16;5111174;28;20016;-38
2022/04/19 01:10:49;;;;;;;4.30;3.03;;;;;;;2.28;81.33;92865.81;5111210;28;20411;-38
2022/04/19 01:13:18;;;;;;;5.90;4.03;;;;;;;2.30;82.09;92857.13;5106319;28;20035;-38
2022/04/19 01:15:48;;;;;;;5.85;4.63;;;;;;;2.31;82.16;92861.34;5090383;28;20039;-38
2022/04/19 01:18:14;;;;;;;6.95;4.95;;;;;;;2.45;81.60;92857.47;5090645;28;20173;-38
2022/04/19 01:20:41;;;;;;;7.03;4.15;;;;;;;2.53;80.93;92846.78;5090679;28;20020;-38
2022/04/19 01:23:07;;;;;;;6.43;4.80;;;;;;;2.42;80.87;92849.59;5090639;28;20105;-38
2022/04/19 01:25:34;;;;;;;4.22;3.30;;;;;;;2.47;80.47;92848.81;5090375;28;20027;-38
2022/04/19 01:27:59;;;;;;;2.70;2.30;;;;;;;2.36;80.94;92849.66;5090263;28;20050;-38
2022/04/19 01:30:24;;;;;;;2.65;2.40;;;;;;;2.47;80.65;92857.72;5090627;28;20060;-38
2022/04/19 01:32:50;;;;;;;3.95;2.85;;;;;;;2.45;80.57;92849.31;5089126;28;20106;-38
2022/04/19 01:35:21;;;;;;;3.13;2.78;;;;;;;2.53;79.79;92852.97;5090198;28;20028;-38
2022/04/19 01:37:48;;;;;;;6.60;4.43;;;;;;;2.44;80.88;92853.28;5090471;28;20028;-38
2022/04/19 01:40:16;;;;;;;10.02;5.88;;;;;;;2.21;81.62;92846.56;5090098;28;20020;-38
2022/04/19 01:42:52;;;;;;;7.28;4.80;;;;;;;2.28;82.07;92852.22;5090602;28;20028;-38
2022/04/19 01:45:23;;;;;;;5.25;3.92;;;;;;;2.28;82.41;92848.75;5090531;28;20028;-38
2022/04/19 01:47:52;;;;;;;2.75;2.15;;;;;;;2.34;82.17;92846.69;5090201;28;20027;-38
2022/04/19 01:50:18;;;;;;;;;;;;;;;2.42;81.62;92842.19;5090985;28;20039;-37
2022/04/19 01:52:45;;;;;;;2.65;2.20;;;;;;;2.27;82.01;92836.38;5090018;28;20393;-38
2022/04/19 01:55:15;;;;;;;6.80;4.43;;;;;;;2.41;81.77;92839.94;5091322;28;20074;-38
2022/04/19 01:57:42;;;;;;;5.82;3.60;;;;;;;2.30;81.48;92822.47;5094360;28;20028;-38
2022/04/19 02:00:08;;;;;;;3.65;2.85;;;;;;;2.32;81.83;92845.75;5094043;28;20028;-38
2022/04/19 02:02:33;;;;;;;3.10;2.13;;;;;;;2.38;82.05;92846.44;5093976;28;20023;-38
2022/04/19 02:04:59;;;;;;;3.25;2.40;;;;;;;2.44;82.26;92842.41;5093985;28;20020;-37
2022/04/19 02:07:24;;;;;;;11.65;6.70;;;;;;;2.39;81.89;92842.44;5093945;28;20024;-38
2022/04/19 02:09:49;;;;;;;9.70;5.30;;;;;;;2.33;81.81;92839.78;5094188;28;20020;-38
2022/04/19 02:12:15;;;;;;;4.65;3.83;;;;;;;2.37;81.70;92848.41;5093883;28;20187;-38
2022/04/19 02:14:41;;;;;;;6.40;3.72;;;;;;;2.34;81.28;92838.53;5097529;28;20035;-38
2022/04/19 02:17:09;;;;;;;3.25;2.90;;;;;;;2.36;81.72;92848.94;5093693;28;20102;-38
2022/04/19 02:19:35;;;;;;;4.13;2.97;;;;;;;2.33;81.18;92850.69;5093742;28;20408;-38
2022/04/19 02:22:00;;;;;;;7.45;4.68;;;;;;;2.33;80.90;92844.50;5093721;28;20509;-38
2022/04/19 02:24:25;;;;;;;3.15;2.85;;;;;;;2.22;81.16;92845.34;5093625;28;20056;-38
2022/04/19 02:26:51;;;;;;;3.45;2.67;;;;;;;2.15;81.30;92845.88;5093846;28;20073;-38
2022/04/19 02:29:16;;;;;;;4.38;2.75;;;;;;;2.06;81.31;92849.69;5093824;28;20497;-38
2022/04/19 02:31:42;;;;;;;2.92;2.60;;;;;;;2.17;81.22;92837.94;5093519;28;20024;-38
2022/04/19 02:34:07;;;;;;;2.72;2.45;;;;;;;2.24;81.24;92842.84;5093441;28;20028;-38
2022/04/19 02:36:32;;;;;;;3.10;2.70;;;;;;;2.27;80.59;92842.53;5093337;28;20031;-38
2022/04/19 02:38:59;;;;;;;2.60;2.40;;;;;;;2.35;80.13;92839.25;5093379;28;20031;-38
2022/04/19 02:41:26;;;;;;;2.97;2.05;;;;;;;2.24;79.69;92813.63;5093541;28;20020;-38
2022/04/19 02:43:51;;;;;;;2.03;1.83;;;;;;;2.41;80.26;92831.78;5093516;28;20077;-38
2022/04/19 02:46:17;;;;;;;2.42;2.00;;;;;;;2.29;79.85;92831.91;5093216;28;20024;-38
2022/04/19 02:48:42;;;;;;;2.92;2.42;;;;;;;2.21;81.13;92827.50;5093511;28;20063;-38
2022/04/19 02:51:08;;;;;;;2.38;1.88;;;;;;;2.08;81.13;92835.56;5093089;28;20090;-38
2022/04/19 02:53:33;;;;;;;2.08;1.70;;;;;;;2.11;81.80;92838.00;5093041;28;20027;-38
2022/04/19 02:55:59;;;;;;;2.63;1.92;;;;;;;2.12;81.82;92842.19;5106174;28;20024;-38
2022/04/19 02:58:25;;;;;;;2.10;1.90;;;;;;;2.24;81.35;92837.38;5113216;28;20547;-38
2022/04/19 03:00:51;;;;;;;2.67;2.40;;;;;;;2.21;81.45;92838.41;5113669;28;20073;-37
2022/04/19 03:03:16;;;;;;;3.42;1.80;;;;;;;2.13;82.25;92838.25;5113238;28;20023;-38
2022/04/19 03:05:42;;;;;;;2.45;2.20;;;;;;;2.21;81.61;92838.41;5113445;28;20024;-38
2022/04/19 03:08:08;;;;;;;2.97;2.17;;;;;;;2.27;81.42;92841.84;5112530;28;20019;-38
2022/04/19 03:10:33;;;;;;;4.38;3.20;;;;;;;2.11;82.19;92848.16;5113407;28;20098;-38
2022/04/19 03:12:59;;;;;;;8.13;5.55;;;;;;;2.12;82.73;92857.81;5107413;28;20474;-37
2022/04/19 03:15:24;;;;;;;14.23;8.90;;;;;;;2.18;83.11;92853.78;5092424;28;20056;-38
2022/04/19 03:17:50;;;;;;;9.68;6.72;;;;;;;2.22;82.71;92856.22;5092441;28;20032;-38
2022/04/19 03:20:15;;;;;;;5.00;3.30;;;;;;;2.08;82.82;92835.56;5092465;28;20020;-37
2022/04/19 03:28:12;;;;;;;7.07;5.35;;;;;;;2.24;81.95;92864.63;5092500;28;20708;-38
2022/04/19 03:30:38;;;;;;;2.33;2.13;;;;;;;2.19;81.86;92859.97;5092648;28;20020;-38
2022/04/19 03:33:04;;;;;;;1.70;1.60;;;;;;;2.34;82.00;92865.03;5092524;28;20039;-38
2022/04/19 03:35:29;;;;;;;2.95;2.20;;;;;;;2.25;81.91;92868.84;5092564;28;20028;-38
2022/04/19 03:37:55;;;;;;;6.03;4.07;;;;;;;2.29;81.72;92861.13;5092080;28;20118;-37
2022/04/19 03:40:20;;;;;;;5.28;3.30;;;;;;;2.37;81.99;92869.47;5092157;28;20020;-37
2022/04/19 03:42:46;;;;;;;5.35;3.85;;;;;;;2.39;81.76;92875.88;5092427;28;20038;-38
2022/04/19 03:45:11;;;;;;;8.65;5.38;;;;;;;2.41;81.65;92875.34;5092022;28;20051;-38
2022/04/19 03:47:37;;;;;;;46.20;24.75;;;;;;;2.41;80.54;92864.47;5092265;28;20023;-37
2022/04/19 03:50:05;;;;;;;36.65;21.92;;;;;;;2.28;80.29;92875.97;5091917;28;20039;-37
2022/04/19 03:52:30;;;;;;;6.85;4.95;;;;;;;2.29;80.93;92874.75;5091963;28;20028;-38
2022/04/19 03:54:57;;;;;;;2.92;2.38;;;;;;;2.33;80.84;92874.44;5092237;28;20394;-38
2022/04/19 03:57:25;;;;;;;2.50;2.30;;;;;;;2.37;80.50;92878.38;5091720;28;20035;-37
2022/04/19 03:59:51;;;;;;;5.80;3.58;;;;;;;2.37;80.32;92872.19;5092012;28;20409;-38
2022/04/19 04:02:17;;;;;;;5.15;4.65;;;;;;;2.18;80.43;92877.56;5091742;28;20032;-38
2022/04/19 04:04:42;;;;;;;4.50;3.67;;;;;;;2.13;80.79;92864.72;5091710;28;20024;-38
2022/04/19 04:07:08;;;;;;;3.63;3.20;;;;;;;2.36;81.15;92884.34;5091638;28;20023;-38
2022/04/19 04:09:37;;;;;;;3.78;3.40;;;;;;;2.46;80.74;92890.91;5091537;28;20084;-38
2022/04/19 04:12:05;;;;;;;4.55;4.00;;;;;;;2.47;80.69;92887.69;5091513;28;20070;-37
2022/04/19 04:14:30;;;;;;;4.00;3.60;;;;;;;2.54;80.28;92887.13;5095487;28;20024;-37
2022/04/19 04:16:56;;;;;;;7.30;4.80;;;;;;;2.38;80.23;92866.25;5091405;28;20463;-38
2022/04/19 04:19:21;;;;;;;9.18;6.88;;;;;;;2.48;79.41;92883.72;5091644;28;20063;-38
2022/04/19 04:21:47;;;;;;;7.85;5.35;;;;;;;2.47;79.48;92893.13;5091651;28;20382;-38
2022/04/19 04:24:12;;;;;;;8.93;6.00;;;;;;;2.59;78.73;92889.06;5091577;28;20051;-38
2022/04/19 04:26:38;;;;;;;7.35;5.40;;;;;;;2.57;78.04;92893.53;5091217;28;20417;-38
2022/04/19 04:29:03;;;;;;;8.43;6.15;;;;;;;2.45;77.99;92890.19;5091516;28;20027;-38
2022/04/19 04:31:29;;;;;;;5.43;3.80;;;;;;;2.44;78.20;92894.16;5091254;28;20027;-38
2022/04/19 04:33:54;;;;;;;3.03;2.75;;;;;;;2.50;78.08;92894.84;5091427;28;20028;-38
2022/04/19 04:36:19;;;;;;;4.35;3.95;;;;;;;2.26;78.70;92884.66;5091382;28;20489;-37
2022/04/19 04:38:48;;;;;;;2.60;2.40;;;;;;;2.36;79.30;92895.94;5091070;28;20459;-38
2022/04/19 04:41:14;;;;;;;2.85;2.22;;;;;;;2.41;79.09;92897.91;5091007;28;20114;-38
2022/04/19 04:43:40;;;;;;;2.92;2.00;;;;;;;2.50;79.03;92902.28;5091343;28;20108;-38
2022/04/19 04:51:34;;;;;;;8.82;6.35;;;;;;;2.49;78.30;92900.81;5111579;28;20092;-37
2022/04/19 04:53:59;;;;;;;8.90;6.13;;;;;;;2.36;77.22;92904.13;5111438;28;20027;-38
2022/04/19 04:56:25;;;;;;;18.17;10.13;;;;;;;2.38;77.88;92904.38;5111363;28;20050;-38
2022/04/19 04:58:50;;;;;;;24.35;11.57;;;;;;;2.69;77.70;92903.81;5111073;28;20106;-38
2022/04/19 05:01:16;;;;;;;30.38;13.85;;;;;;;2.59;76.86;92915.56;5111009;28;20028;-37
2022/04/19 05:03:41;;;;;;;18.92;10.55;;;;;;;2.55;77.68;92910.41;5110965;28;20027;-37
2022/04/19 05:06:07;;;;;;;13.77;8.38;;;;;;;2.72;76.64;92907.50;5111192;28;20030;-38
2022/04/19 05:08:32;;;;;;;13.93;9.60;;;;;;;2.71;77.21;92917.66;5111246;28;20023;-38
2022/04/19 05:10:58;;;;;;;7.40;6.13;;;;;;;2.79;77.09;92912.41;5111137;28;20020;-37
2022/04/19 05:13:24;;;;;;;6.10;4.47;;;;;;;2.76;77.08;92911.44;5101817;28;20425;-38
2022/04/19 05:15:50;;;;;;;4.35;3.58;;;;;;;2.62;77.93;92917.28;5090421;28;20054;-37
2022/04/19 05:18:16;;;;;;;4.55;3.33;;;;;;;2.44;78.57;92898.88;5090327;28;20024;-38
2022/04/19 05:20:41;;;;;;;4.68;3.80;;;;;;;2.56;79.13;92916.56;5090772;28;20043;-38
2022/04/19 05:23:07;;;;;;;3.72;3.35;;;;;;;2.65;78.90;92922.44;5090622;28;20032;-37
2022/04/19 05:25:33;;;;;;;8.07;5.10;;;;;;;2.73;78.55;92914.44;5090735;28;20042;-37
2022/04/19 05:27:58;;;;;;;3.75;3.30;;;;;;;2.73;78.69;92915.16;5090595;28;20477;-37
2022/04/19 05:30:24;;;;;;;4.55;3.40;;;;;;;2.75;78.34;92904.50;5089751;28;20497;-37
2022/04/19 05:32:49;;;;;;;6.10;4.20;;;;;;;3.02;77.87;92919.81;5090602;28;20099;-37
2022/04/19 05:35:15;;;;;;;4.82;2.70;;;;;;;3.05;77.12;92924.25;5090538;28;20085;-37
2022/04/19 05:37:40;;;;;;;2.72;1.92;;;;;;;3.12;77.61;92922.94;5090547;28;20471;-38
2022/04/19 05:40:06;;;;;;;1.88;1.77;;;;;;;3.18;76.75;92929.06;5090427;28;20024;-37
2022/04/19 05:42:32;;;;;;;3.78;2.47;;;;;;;3.27;76.44;92928.69;5090553;28;20103;-37
2022/04/19 05:44:58;;;;;;;2.28;2.00;;;;;;;3.18;77.16;92928.34;5090086;28;20467;-37
2022/04/19 05:47:24;;;;;;;2.60;2.38;;;;;;;3.32;76.86;92933.34;5090206;28;20020;-37
2022/04/19 05:49:49;;;;;;;2.38;1.75;;;;;;;3.45;75.80;92940.88;5090152;28;20040;-38
2022/04/19 05:52:15;;;;;;;3.60;2.38;;;;;;;3.55;75.29;92942.75;5090409;28;20035;-38
2022/04/19 05:54:40;;;;;;;1.40;1.30;;;;;;;3.60;76.08;92943.91;5090149;28;20083;-37
2022/04/19 05:57:06;;;;;;;4.05;3.33;;;;;;;3.75;75.69;92939.50;5089988;28;20031;-37
2022/04/19 05:59:32;;;;;;;15.57;9.32;;;;;;;4.04;74.50;92948.03;5090409;28;20424;-37
2022/04/19 06:05:14;;;;;;;20.00;10.55;;;;;;;4.47;73.21;92952.09;5090127;28;20035;-37
2022/04/19 06:07:42;;;;;;;5.43;3.50;;;;;;;4.56;71.74;92959.19;5088820;28;20093;-37
2022/04/19 06:10:08;;;;;;;4.00;3.22;;;;;;;4.63;70.75;92953.09;5089875;28;20035;-37
2022/04/19 06:12:34;;;;;;;6.03;4.43;;;;;;;4.63;71.14;92947.63;5091899;28;20094;-38
2022/04/19 06:14:59;;;;;;;5.00;3.75;;;;;;;4.67;70.73;92950.78;5092127;28;20437;-38
2022/04/19 06:17:29;;;;;;;2.65;1.90;;;;;;;4.63;71.28;92959.28;5089792;28;20570;-38
2022/04/19 06:19:55;;;;;;;3.72;3.33;;;;;;;4.52;70.36;92956.75;5089923;28;20091;-38
2022/04/19 06:22:21;;;;;;;3.38;3.05;;;;;;;4.61;71.18;92959.06;5090215;28;20078;-38
2022/04/19 06:24:46;;;;;;;3.95;2.97;;;;;;;4.78;71.37;92955.34;5089774;28;20183;-38
2022/04/19 06:27:11;;;;;;;4.15;2.42;;;;;;;4.84;70.56;92958.69;5089814;28;20024;-38
2022/04/19 06:29:37;;;;;;;2.50;2.20;;;;;;;4.75;68.68;92964.56;5089826;28;20020;-38
2022/04/19 06:32:03;;;;;;;4.55;3.22;;;;;;;4.79;68.59;92940.38;5089765;28;20028;-38
2022/04/19 06:34:29;;;;;;;11.82;7.25;;;;;;;5.01;68.53;92953.69;5090034;28;20052;-38
2022/04/19 06:36:54;;;;;;;7.60;5.10;;;;;;;5.10;67.64;92962.22;5089616;28;20417;-38
2022/04/19 06:39:20;;;;;;;5.10;3.55;;;;;;;5.13;68.32;92965.91;5089708;28;20028;-37
2022/04/19 06:41:45;;;;;;;4.60;2.72;;;;;;;4.92;68.02;92959.56;5109357;28;20031;-38
2022/04/19 06:44:10;;;;;;;6.80;5.57;;;;;;;4.81;69.64;92967.97;5113716;28;20081;-37
2022/04/19 06:46:36;;;;;;;4.65;4.00;;;;;;;4.79;68.79;92965.00;5113956;28;20081;-38
2022/04/19 06:49:07;;;;;;;7.25;4.68;;;;;;;4.75;69.36;92970.03;5113635;28;20084;-38
2022/04/19 06:51:33;;;;;;;5.68;4.55;;;;;;;4.89;69.51;92966.09;5113593;28;20024;-38
2022/04/19 06:53:58;;;;;;;3.95;3.22;;;;;;;5.21;69.13;92972.97;5113463;28;20077;-38
2022/04/19 06:56:24;;;;;;;3.60;2.53;;;;;;;6.00;68.32;92967.44;5113770;28;20023;-38
2022/04/19 06:58:50;;;;;;;5.85;3.22;;;;;;;6.87;64.17;92965.91;5113398;27;20508;-38
2022/04/19 07:01:16;;;;;;;4.18;3.25;;;;;;;7.94;62.29;92946.81;5113601;28;20104;-38
2022/04/19 07:03:42;;;;;;;4.43;4.03;;;;;;;9.06;57.58;92964.88;5113649;28;20476;-38
2022/04/19 07:06:07;;;;;;;2.58;2.38;;;;;;;9.60;55.41;92962.81;5113524;28;20514;-38
2022/04/19 07:08:33;;;;;;;3.10;2.80;;;;;;;9.26;54.92;92965.97;5113329;28;20035;-38
2022/04/19 07:11:00;;;;;;;6.85;4.78;;;;;;;9.30;56.79;92966.34;5113459;28;20389;-38
2022/04/19 07:13:26;;;;;;;3.58;2.78;;;;;;;8.90;56.40;92960.63;5103731;28;20027;-38
2022/04/19 07:15:51;;;;;;;4.93;3.08;;;;;;;8.65;56.67;92967.97;5092616;28;20127;-38
2022/04/19 07:18:17;;;;;;;3.03;2.72;;;;;;;8.23;59.30;92963.94;5092790;28;20028;-38
2022/04/19 07:28:55;;;;;;;2.90;2.60;;;;;;;7.73;60.38;92970.19;5092713;28;20031;-38
2022/04/19 07:31:21;;;;;;;3.80;3.38;;;;;;;7.84;60.27;92967.13;5092719;28;20024;-38
2022/04/19 07:33:46;;;;;;;4.57;2.53;;;;;;;8.02;59.93;92966.81;5092560;28;20028;-38
2022/04/19 07:36:12;;;;;;;2.30;2.10;;;;;;;8.06;59.31;92967.19;5096733;28;20683;-38
2022/04/19 07:38:37;;;;;;;2.20;2.00;;;;;;;7.93;57.15;92952.84;5112534;28;20027;-38
2022/04/19 07:41:04;;;;;;;3.20;2.72;;;;;;;8.03;61.22;92964.81;5112872;28;20023;-38
2022/04/19 07:43:30;;;;;;;2.42;2.22;;;;;;;8.57;59.72;92972.72;5112576;28;20035;-38
2022/04/19 07:45:55;;;;;;;2.95;2.05;;;;;;;8.62;57.93;92963.53;5112386;28;20030;-38
2022/04/19 07:48:21;;;;;;;4.25;3.22;;;;;;;9.46;58.05;92967.06;5112724;28;20011;-39
2022/04/19 07:50:46;;;;;;;2.17;1.77;;;;;;;9.96;56.70;92965.31;5112633;28;20054;-39
2022/04/19 07:53:12;;;;;;;2.65;2.42;;;;;;;11.12;55.10;92953.28;5112181;28;20032;-38
2022/04/19 07:55:37;;;;;;;1.80;1.70;;;;;;;12.20;49.72;92963.53;5112571;28;20077;-39
2022/04/19 07:58:03;;;;;;;1.83;1.73;;;;;;;12.30;48.08;92964.31;5112111;28;20031;-39
2022/04/19 08:00:29;;;;;;;8.90;4.55;;;;;;;12.40;45.89;92964.41;5112145;28;20065;-39
2022/04/19 08:02:57;;;;;;;2.75;1.65;;;;;;;12.42;45.99;92962.53;5112184;28;20020;-39
2022/04/19 08:05:24;;;;;;;13.52;6.72;;;;;;;12.60;44.01;92954.91;5112126;28;20529;-39
2022/04/19 08:07:50;;;;;;;4.10;3.13;;;;;;;12.63;46.26;92960.03;5112105;28;20031;-39
2022/04/19 08:10:19;;;;;;;2.72;2.03;;;;;;;12.84;44.27;92954.03;5111999;28;20088;-39
2022/04/19 08:12:45;;;;;;;3.40;2.38;;;;;;;12.05;45.79;92960.94;5112042;28;20027;-39
2022/04/19 08:15:10;;;;;;;14.52;8.52;;;;;;;11.05;48.61;92956.09;5092190;28;20051;-39
2022/04/19 08:17:37;;;;;;;2.97;2.67;;;;;;;10.55;51.49;92966.34;5091469;28;20032;-38
2022/04/19 08:20:03;;;;;;;3.90;2.97;;;;;;;9.96;51.26;92963.28;5091825;28;20035;-38
2022/04/19 08:22:28;;;;;;;6.13;3.95;;;;;;;9.47;52.23;92965.75;5091325;28;20398;-38
2022/04/19 08:24:54;;;;;;;5.13;3.33;;;;;;;8.80;56.36;92961.72;5091359;28;20047;-38
2022/04/19 08:27:19;;;;;;;7.22;3.00;;;;;;;8.44;57.28;92966.63;5091594;28;20102;-37
2022/04/19 08:29:46;;;;;;;2.35;2.15;;;;;;;7.93;58.65;92966.59;5091278;28;20425;-38
2022/04/19 08:32:12;;;;;;;2.85;2.63;;;;;;;7.56;60.92;92965.88;5093304;28;20490;-38
2022/04/19 08:34:38;;;;;;;2.90;2.45;;;;;;;7.32;60.70;92963.50;5111505;28;20027;-38
2022/04/19 08:37:04;;;;;;;6.22;3.15;;;;;;;7.21;60.84;92963.81;5111447;28;20062;-38
2022/04/19 08:39:30;;;;;;;5.20;2.47;;;;;;;6.86;61.45;92958.97;5111457;28;20035;-38
2022/04/19 08:41:55;;;;;;;2.63;2.38;;;;;;;6.53;60.66;92957.78;5111635;28;20047;-38
2022/04/19 08:44:21;;;;;;;2.67;2.45;;;;;;;6.49;59.98;92956.63;5111671;28;20027;-37
2022/04/19 08:46:46;;;;;;;4.50;3.03;;;;;;;6.64;60.52;92959.50;5111251;28;20432;-38
2022/04/19 08:49:12;;;;;;;3.10;2.42;;;;;;;6.86;59.82;92956.22;5111142;28;20019;-38
2022/04/19 08:51:39;;;;;;;5.07;3.83;;;;;;;6.81;59.89;92955.09;5110586;28;20122;-38
2022/04/19 08:59:34;;;;;;;4.70;3.47;;;;;;;7.65;58.05;92954.38;5111252;28;20114;-38
2022/04/19 09:01:59;;;;;;;3.85;3.10;;;;;;;7.16;61.05;92972.94;5111337;27;20102;-38
2022/04/19 09:04:25;;;;;;;2.60;2.25;;;;;;;7.19;62.10;92973.88;5110420;28;20032;-38
2022/04/19 09:06:59;;;;;;;4.70;2.90;;;;;;;7.63;62.15;92967.94;5111087;28;20016;-38
2022/04/19 09:09:29;;;;;;;1.63;1.30;;;;;;;8.12;59.97;92959.53;5111276;28;20083;-38
2022/04/19 09:12:09;;;;;;;3.88;2.28;;;;;;;8.33;56.24;92956.69;5110933;28;20038;-38
2022/04/19 09:14:36;;;;;;;2.97;2.63;;;;;;;7.84;58.97;92953.38;5091949;28;20028;-39
2022/04/19 09:17:07;;;;;;;3.13;2.45;;;;;;;7.33;59.70;92954.00;5090751;28;20470;-38
2022/04/19 09:19:33;;;;;;;3.45;2.92;;;;;;;6.47;61.49;92953.69;5090551;28;20032;-38
2022/04/19 09:22:00;;;;;;;2.38;2.17;;;;;;;5.70;63.86;92958.81;5090342;28;20020;-37
2022/04/19 09:24:26;;;;;;;3.55;2.75;;;;;;;5.38;66.46;92956.22;5090671;28;20016;-37
2022/04/19 09:26:52;;;;;;;2.22;2.03;;;;;;;5.38;67.25;92967.91;5090373;28;20428;-38
2022/04/19 09:29:24;;;;;;;3.97;3.33;;;;;;;5.43;68.44;92971.06;5099670;28;20088;-38
2022/04/19 09:31:53;;;;;;;3.00;2.70;;;;;;;5.28;66.09;92977.78;5110667;28;20067;-38
2022/04/19 09:34:30;;;;;;;9.48;5.35;;;;;;;5.06;66.39;92980.22;5110590;28;20389;-38
2022/04/19 09:37:13;;;;;;;13.27;9.25;;;;;;;4.91;66.98;92952.63;5110586;28;20515;-38
2022/04/19 09:39:39;;;;;;;23.33;14.57;;;;;;;5.28;67.56;92977.06;5110604;28;20043;-38
2022/04/19 09:42:07;;;;;;;20.80;11.98;;;;;;;5.57;68.41;92972.53;5110555;28;20024;-37
2022/04/19 09:44:37;;;;;;;15.57;8.60;;;;;;;6.49;65.58;92962.09;5110922;28;20482;-38
2022/04/19 09:47:07;;;;;;;10.05;6.53;;;;;;;7.63;61.45;92961.69;5110531;28;20015;-38
2022/04/19 09:49:52;;;;;;;2.80;2.60;;;;;;;8.07;59.55;92960.44;5110637;28;20020;-37
2022/04/19 09:52:23;;;;;;;2.95;1.85;;;;;;;7.82;58.42;92955.94;5110751;28;20401;-37
2022/04/19 09:55:03;;;;;;;1.83;1.73;;;;;;;6.95;59.84;92949.53;5110705;28;20092;-38
2022/04/19 09:57:31;;;;;;;1.80;1.70;;;;;;;6.52;63.60;92964.50;5110611;28;20031;-37
2022/04/19 09:59:59;;;;;;;2.55;2.15;;;;;;;6.30;64.71;92969.78;5110374;28;20024;-38
2022/04/19 10:10:40;;;;;;;2.72;1.92;;;;;;;5.68;64.62;92975.78;5109620;28;20047;-38
2022/04/19 10:13:06;;;;;;;3.80;2.53;;;;;;;5.58;64.26;92960.31;5104072;28;20464;-37
2022/04/19 10:15:35;;;;;;;2.55;2.35;;;;;;;5.59;64.39;92967.28;5089979;28;20044;-38
2022/04/19 10:18:04;;;;;;;2.50;2.30;;;;;;;5.63;64.21;92962.94;5093722;28;20030;-38
2022/04/19 10:20:32;;;;;;;5.10;4.33;;;;;;;5.77;66.02;92956.19;5094109;28;20081;-38
2022/04/19 10:23:11;;;;;;;3.13;2.80;;;;;;;5.85;65.66;92956.28;5093575;28;20487;-38
2022/04/19 10:25:44;;;;;;;3.25;2.95;;;;;;;5.71;64.83;92944.63;5103484;28;20031;-38
2022/04/19 10:28:12;;;;;;;6.13;3.38;;;;;;;5.86;64.50;92955.03;5113962;28;20073;-38
2022/04/19 10:30:39;;;;;;;3.55;2.88;;;;;;;5.64;63.30;92958.94;5114244;28;20031;-38
2022/04/19 10:33:50;;;;;;;4.28;3.17;;;;;;;5.62;65.48;92953.25;5114065;28;20052;-38
2022/04/19 10:36:22;;;;;;;2.80;2.60;;;;;;;5.78;64.94;92916.56;5113604;28;20043;-38
2022/04/19 10:39:08;;;;;;;10.07;3.20;;;;;;;6.35;64.36;92953.19;5114118;28;20016;-38
2022/04/19 10:41:58;;;;;;;2.97;2.50;;;;;;;6.52;62.45;92947.34;5106552;28;20123;-38
2022/04/19 10:44:36;;;;;;;2.30;1.98;;;;;;;6.59;60.29;92938.44;5113845;27;20473;-38
2022/04/19 10:47:11;;;;;;;2.75;2.33;;;;;;;6.93;60.29;92944.56;5113714;27;20020;-38
2022/04/19 10:49:59;;;;;;;2.33;2.05;;;;;;;7.95;57.62;92950.31;5113970;28;20035;-37
2022/04/19 10:52:39;;;;;;;2.35;2.10;;;;;;;10.04;53.70;92936.41;5113572;28;20032;-38
2022/04/19 10:55:21;;;;;;;2.72;1.90;;;;;;;12.13;48.07;92937.41;5113814;28;20234;-39
2022/04/19 10:58:06;;;;;;;2.00;1.67;;;;;;;14.14;43.77;92931.94;5113374;28;20039;-38
2022/04/19 11:00:34;;;;;;;3.08;2.78;;;;;;;15.44;40.96;92934.16;5113422;28;20035;-38
2022/04/19 11:03:07;;;;;;;4.53;2.58;;;;;;;15.49;36.53;92931.06;5113369;28;20026;-38
2022/04/19 11:05:50;;;;;;;2.60;2.22;;;;;;;15.75;37.16;92929.28;5112182;28;20024;-38
2022/04/19 11:08:24;;;;;;;2.80;2.47;;;;;;;16.17;40.13;92934.88;5113310;28;20519;-38
2022/04/19 11:10:57;;;;;;;1.98;1.65;;;;;;;15.55;37.75;92933.53;5113463;28;20047;-38
2022/04/19 11:13:27;;;;;;;4.00;3.22;;;;;;;14.36;33.63;92927.97;5108924;28;20114;-38
2022/04/19 11:16:13;;;;;;;1.50;1.33;;;;;;;13.66;33.29;92924.28;5113029;28;20076;-38
2022/04/19 11:18:39;;;;;;;3.22;2.90;;;;;;;12.69;40.10;92929.31;5113013;28;20473;-38
2022/04/19 11:21:12;;;;;;;4.38;3.20;;;;;;;11.49;42.58;92925.88;5109677;28;20028;-38
2022/04/19 11:23:41;;;;;;;4.32;3.22;;;;;;;11.35;43.61;92930.97;5092565;28;20524;-38
2022/04/19 11:26:10;;;;;;;3.10;2.78;;;;;;;11.14;44.29;92922.31;5092826;28;20032;-38
2022/04/19 11:28:35;;;;;;;3.38;2.90;;;;;;;10.85;46.43;92927.50;5091708;28;20028;-38
2022/04/19 11:31:00;;;;;;;3.30;3.00;;;;;;;10.60;43.62;92919.22;5092361;28;20035;-38
2022/04/19 11:33:34;;;;;;;8.13;3.33;;;;;;;10.58;46.46;92923.84;5092412;28;20036;-37
2022/04/19 11:36:03;;;;;;;3.28;2.88;;;;;;;11.29;42.31;92919.44;5092251;28;20507;-38
2022/04/19 11:38:36;;;;;;;;;;;;;;;11.95;43.92;92919.34;5093059;28;20131;-38
2022/04/19 11:46:45;;;;;;;2.25;2.05;;;;;;;12.14;39.20;92924.31;5092455;28;20035;-38
2022/04/19 11:49:16;;;;;;;3.70;2.30;;;;;;;11.95;37.45;92929.69;5092068;28;20024;-38
2022/04/19 11:51:45;;;;;;;3.20;2.45;;;;;;;12.67;40.34;92931.91;5092350;28;20080;-38
2022/04/19 11:54:15;;;;;;;;;;;;;;;13.28;41.82;92929.72;5092468;28;20024;-38
2022/04/19 11:56:41;;;;;;;2.90;2.58;;;;;;;13.07;41.35;92918.44;5090723;28;19969;-38
2022/04/19 11:59:07;;;;;;;1.42;1.33;;;;;;;12.62;41.06;92914.28;5091848;28;20092;-38
2022/04/19 12:01:32;;;;;;;8.38;4.95;;;;;;;11.79;40.98;92909.03;5090673;28;20028;-38
2022/04/19 12:03:58;;;;;;;2.85;1.90;;;;;;;10.81;41.66;92909.88;5091745;28;20024;-38
2022/04/19 12:06:24;;;;;;;15.02;8.68;;;;;;;9.88;44.44;92908.16;5091765;28;20477;-37
2022/04/19 12:08:53;;;;;;;4.03;3.38;;;;;;;9.13;47.29;92911.09;5091693;28;20027;-37
2022/04/19 12:11:28;;;;;;;3.42;2.60;;;;;;;8.94;49.78;92927.25;5091856;28;20054;-37
2022/04/19 12:13:54;;;;;;;3.08;2.28;;;;;;;8.84;46.20;92929.06;5104251;28;20024;-37
2022/04/19 12:16:34;;;;;;;4.18;3.03;;;;;;;8.18;52.42;92946.38;5111763;28;20043;-37
2022/04/19 12:19:02;;;;;;;3.58;1.98;;;;;;;7.23;57.09;92953.03;5094251;28;20110;-38
2022/04/19 12:21:38;;;;;;;1.80;1.70;;;;;;;7.40;60.23;92956.06;5091735;28;20023;-37
2022/04/19 12:24:04;;;;;;;2.05;1.90;;;;;;;7.54;60.89;92949.19;5091744;28;20024;-37